This is the latest recevied weather packets stored in our database for station/object KC9NBZ. If no packets are shown the sender has not sent any weather packets the latest 10 day(s).
| Time | Temp. | Humidity | Pressure | Rain* | Wind** | Luminosity | Snow |
|---|---|---|---|---|---|---|---|
| 1777689943 | 3.33° C | 68% | 1018.4 hPa | 0 mm | - | 0 W/m² | - |
| 1777689322 | 3.89° C | 65% | 1018.4 hPa | 0 mm | - | 0 W/m² | - |
| 1777682740 | 7.22° C | 48% | 1017.7 hPa | 0 mm | - | 14 W/m² | - |
| 1777681522 | 8.33° C | 43% | 1017.4 hPa | 0 mm | - | 34 W/m² | - |
| 1777680920 | 8.33° C | 44% | 1017.4 hPa | 0 mm | - | 60 W/m² | - |
| 1777679744 | 8.33° C | 43% | 1017.1 hPa | 0 mm | - | 60 W/m² | - |
| 1777678543 | 8.33° C | 42% | 1017 hPa | 0 mm | - | 108 W/m² | - |
| 1777677943 | 8.89° C | 42% | 1017.1 hPa | 0 mm | - | 82 W/m² | - |
| 1777671320 | 8.89° C | 49% | 1016.9 hPa | 0 mm | - | 196 W/m² | - |
| 1777668921 | 8.33° C | 46% | 1016.8 hPa | 0 mm | - | 287 W/m² | - |
| 1777667162 | 8.33° C | 49% | 1016.9 hPa | 0 mm | - | 234 W/m² | - |
| 1777664118 | 8.33° C | 49% | 1016.7 hPa | 0 mm | - | 642 W/m² | - |
| 1777662919 | 7.78° C | 51% | 1016.7 hPa | 0 mm | - | 322 W/m² | - |
| 1777660520 | 7.78° C | 56% | 1016.6 hPa | 0 mm | - | 279 W/m² | - |
| 1777658720 | 7.22° C | 58% | 1016.6 hPa | 0 mm | - | 226 W/m² | - |
| 1777655721 | 6.67° C | 66% | 1016.7 hPa | 0 mm | - | 316 W/m² | - |
| 1777649720 | 5.56° C | 71% | 1017.1 hPa | 0 mm | - | 208 W/m² | - |
| 1777644921 | 5° C | 76% | 1017.1 hPa | 0 mm | - | 318 W/m² | - |
| 1777644321 | 5° C | 78% | 1017 hPa | 0 mm | - | 248 W/m² | - |
| 1777643720 | 5° C | 81% | 1016.8 hPa | 0 mm | - | 230 W/m² | - |
| 1777642519 | 4.44° C | 87% | 1016.6 hPa | 0 mm | - | 248 W/m² | - |
| 1777641319 | 3.89° C | 88% | 1016.6 hPa | 0 mm | - | 177 W/m² | - |
| 1777639519 | 3.89° C | 90% | 1016.5 hPa | 0 mm | - | 158 W/m² | - |
| 1777638926 | 3.89° C | 91% | 1016.4 hPa | 0 mm | - | 199 W/m² | - |
| 1777638339 | 3.33° C | 92% | 1016.3 hPa | 0 mm | - | 168 W/m² | - |
* Rain latest hour (hover to see other rain measurements)
** Current wind speed in m/s (hover to see current wind gust speed)